Time;durP1;ratioP1;P1;durP2;ratioP2;P2;SDS_P1;SDS_P2;PMS_P1;PMS_P2;Temp;Humidity;BMP_temperature;BMP_pressure;BME280_temperature;BME280_humidity;BME280_pressure;Samples;Min_cycle;Max_cycle;Signal;HPM_P1;HPM_P2
2024/02/11 00:02:19;;;;;;;21.00;13.70;;;8.40;99.90;;;;;;4970598;28;20053;-71
2024/02/11 00:04:45;;;;;;;26.85;13.27;;;8.40;99.90;;;;;;5001185;28;20103;-70
2024/02/11 00:07:11;;;;;;;26.35;12.82;;;8.40;99.90;;;;;;5000871;28;20054;-70
2024/02/11 00:09:37;;;;;;;31.30;14.70;;;8.40;99.90;;;;;;5003194;28;20055;-70
2024/02/11 00:12:04;;;;;;;27.52;13.13;;;8.40;99.90;;;;;;4979857;28;20045;-70
2024/02/11 00:14:30;;;;;;;30.23;14.60;;;8.30;99.90;;;;;;4985597;28;20050;-70
2024/02/11 00:16:59;;;;;;;29.77;13.30;;;8.40;99.90;;;;;;4982250;28;20060;-70
2024/02/11 00:19:26;;;;;;;29.63;13.43;;;8.40;99.90;;;;;;4977047;28;20049;-70
2024/02/11 00:21:52;;;;;;;29.70;13.32;;;8.30;99.90;;;;;;4990765;28;20144;-70
2024/02/11 00:24:19;;;;;;;31.98;13.90;;;8.30;99.90;;;;;;5000429;28;20207;-70
2024/02/11 00:26:45;;;;;;;26.35;13.25;;;8.20;99.90;;;;;;5012459;28;20448;-69
2024/02/11 00:29:11;;;;;;;28.95;13.25;;;8.20;99.90;;;;;;4967754;28;20482;-70
2024/02/11 00:31:38;;;;;;;27.23;12.48;;;8.20;99.90;;;;;;4980330;28;20443;-70
2024/02/11 00:34:05;;;;;;;22.65;12.35;;;8.20;99.90;;;;;;5001603;28;20061;-70
2024/02/11 00:36:36;;;;;;;29.50;13.20;;;8.10;99.90;;;;;;4996110;28;20054;-70
2024/02/11 00:39:01;;;;;;;29.13;12.48;;;8.10;99.90;;;;;;5001087;28;20046;-70
2024/02/11 00:41:28;;;;;;;23.20;10.63;;;8.10;99.90;;;;;;4994411;28;20093;-70
2024/02/11 00:43:55;;;;;;;18.58;12.00;;;8.10;99.90;;;;;;4997395;28;20053;-70
2024/02/11 00:46:21;;;;;;;30.20;12.27;;;8.10;99.90;;;;;;4994271;28;20504;-70
2024/02/11 00:48:47;;;;;;;21.27;11.13;;;8.10;99.90;;;;;;4963655;28;20042;-70
2024/02/11 00:51:13;;;;;;;21.88;11.48;;;8.00;99.90;;;;;;4988035;28;20100;-70
2024/02/11 00:53:38;;;;;;;22.05;11.32;;;8.10;99.90;;;;;;4982468;28;20492;-70
2024/02/11 00:56:04;;;;;;;23.65;11.45;;;8.00;99.90;;;;;;4969881;28;20046;-70
2024/02/11 00:58:33;;;;;;;22.65;11.65;;;8.00;99.90;;;;;;4988128;28;20485;-70
2024/02/11 01:00:59;;;;;;;23.02;11.68;;;8.00;99.90;;;;;;4985190;28;20050;-71
2024/02/11 01:03:25;;;;;;;20.73;11.27;;;8.00;99.90;;;;;;5001445;28;20492;-70
2024/02/11 01:05:51;;;;;;;21.38;10.60;;;8.00;99.90;;;;;;4984710;28;20038;-70
2024/02/11 01:08:17;;;;;;;20.88;11.18;;;8.00;99.90;;;;;;4953190;28;20146;-71
2024/02/11 01:10:43;;;;;;;20.48;10.45;;;8.00;99.90;;;;;;5002472;28;20365;-70
2024/02/11 01:13:13;;;;;;;26.42;11.52;;;7.90;99.90;;;;;;4983671;28;20092;-70
2024/02/11 01:15:39;;;;;;;22.67;11.60;;;7.90;99.90;;;;;;5002091;28;20045;-70
2024/02/11 01:18:06;;;;;;;20.58;10.35;;;7.90;99.90;;;;;;5002054;28;20049;-70
2024/02/11 01:20:32;;;;;;;24.83;10.98;;;7.90;99.90;;;;;;4985469;28;20395;-70
2024/02/11 01:22:58;;;;;;;18.45;10.10;;;7.80;99.90;;;;;;5002351;28;20065;-70
2024/02/11 01:25:24;;;;;;;19.55;10.95;;;7.80;99.90;;;;;;5000904;28;20053;-70
2024/02/11 01:27:50;;;;;;;26.10;11.02;;;7.90;99.90;;;;;;4986293;28;20045;-70
2024/02/11 01:30:20;;;;;;;20.38;10.25;;;7.80;99.90;;;;;;5001054;28;20054;-70
2024/02/11 01:32:47;;;;;;;21.48;9.93;;;7.80;99.90;;;;;;5002172;28;20046;-70
2024/02/11 01:35:14;;;;;;;23.83;9.35;;;7.80;99.90;;;;;;4984597;28;20057;-70
2024/02/11 01:37:40;;;;;;;21.55;10.10;;;7.80;99.90;;;;;;4985658;28;20050;-70
2024/02/11 01:40:17;;;;;;;21.20;10.25;;;7.80;99.90;;;;;;5004308;28;20054;-70
2024/02/11 01:42:45;;;;;;;19.52;10.73;;;7.70;99.90;;;;;;5004748;28;20553;-70
2024/02/11 01:45:17;;;;;;;21.27;10.82;;;7.80;99.90;;;;;;5006220;28;20042;-70
2024/02/11 01:47:44;;;;;;;19.30;10.45;;;7.80;99.90;;;;;;4987781;28;20045;-70
2024/02/11 01:50:15;;;;;;;21.38;10.30;;;7.70;99.90;;;;;;4989438;28;20606;-70
2024/02/11 01:52:42;;;;;;;21.23;10.05;;;7.80;99.90;;;;;;5005173;28;20096;-70
2024/02/11 01:55:17;;;;;;;24.65;10.60;;;7.70;99.90;;;;;;4989177;28;20233;-70
2024/02/11 01:57:45;;;;;;;29.80;10.85;;;7.70;99.90;;;;;;5005219;28;20064;-70
2024/02/11 02:00:17;;;;;;;24.55;10.65;;;7.80;99.90;;;;;;5004635;28;20042;-70
2024/02/11 02:02:44;;;;;;;32.22;10.85;;;7.80;99.90;;;;;;5005117;28;20045;-70
2024/02/11 02:05:10;;;;;;;29.10;10.50;;;7.70;99.90;;;;;;5004283;28;20143;-70
2024/02/11 02:07:36;;;;;;;24.83;9.82;;;7.80;99.90;;;;;;5005202;28;20045;-70
2024/02/11 02:10:03;;;;;;;25.20;9.55;;;7.70;99.90;;;;;;4989130;28;20443;-69
2024/02/11 02:12:28;;;;;;;16.55;9.65;;;7.80;99.90;;;;;;5004742;28;20125;-70
2024/02/11 02:14:54;;;;;;;22.75;9.70;;;7.80;99.90;;;;;;4989200;28;20041;-70
2024/02/11 02:17:20;;;;;;;20.50;10.23;;;7.80;99.90;;;;;;4999702;28;20480;-70
2024/02/11 02:19:46;;;;;;;18.48;8.57;;;7.70;99.90;;;;;;5004193;28;20073;-70
2024/02/11 02:22:11;;;;;;;20.05;9.27;;;7.70;99.90;;;;;;5004017;28;20061;-70
2024/02/11 02:24:37;;;;;;;26.58;9.32;;;7.70;99.90;;;;;;5004572;28;20484;-70
2024/02/11 02:27:06;;;;;;;18.85;9.90;;;7.70;99.90;;;;;;5004432;28;20041;-70
2024/02/11 02:29:32;;;;;;;15.02;8.30;;;7.80;99.90;;;;;;5004451;28;20050;-70
2024/02/11 02:31:58;;;;;;;18.52;7.60;;;7.70;99.90;;;;;;5005053;28;20056;-70
2024/02/11 02:34:23;;;;;;;20.42;9.10;;;7.70;99.90;;;;;;4988005;28;20104;-70
2024/02/11 02:36:50;;;;;;;18.80;9.65;;;7.80;99.90;;;;;;5004637;28;20040;-70
2024/02/11 02:39:16;;;;;;;16.42;9.30;;;7.60;99.90;;;;;;5004454;28;20057;-69
2024/02/11 02:41:43;;;;;;;31.95;9.77;;;7.60;99.90;;;;;;5006306;28;20917;-70
2024/02/11 02:44:09;;;;;;;25.60;10.85;;;7.60;99.90;;;;;;4987267;28;20504;-69
2024/02/11 02:46:35;;;;;;;29.58;9.50;;;7.70;99.90;;;;;;4988315;28;20045;-70
2024/02/11 02:49:01;;;;;;;19.80;9.02;;;7.60;99.90;;;;;;5004751;28;20058;-70
2024/02/11 02:51:27;;;;;;;21.42;9.07;;;7.60;99.90;;;;;;5002630;28;20411;-70
2024/02/11 02:53:52;;;;;;;21.85;10.75;;;7.70;99.90;;;;;;4978674;28;20084;-70
2024/02/11 02:56:18;;;;;;;20.50;10.07;;;7.50;99.90;;;;;;5004300;28;20168;-70
2024/02/11 02:58:46;;;;;;;21.42;9.55;;;7.60;99.90;;;;;;5005137;28;20890;-70
2024/02/11 03:01:26;;;;;;;20.45;10.55;;;7.60;99.90;;;;;;5003560;28;20080;-70
2024/02/11 03:03:52;;;;;;;33.60;11.02;;;7.60;99.90;;;;;;5003212;28;20056;-70
2024/02/11 03:06:19;;;;;;;18.33;10.40;;;7.60;99.90;;;;;;4988327;28;20133;-70
2024/02/11 03:08:45;;;;;;;24.20;11.48;;;7.60;99.90;;;;;;5003467;28;20061;-70
2024/02/11 03:11:10;;;;;;;27.92;11.80;;;7.60;99.90;;;;;;4987900;28;20560;-70
2024/02/11 03:13:36;;;;;;;24.27;11.70;;;7.50;99.90;;;;;;4987513;28;20038;-70
2024/02/11 03:16:02;;;;;;;32.05;11.38;;;7.60;99.90;;;;;;4987519;28;20050;-70
2024/02/11 03:18:28;;;;;;;21.90;11.52;;;7.50;99.90;;;;;;4987232;28;20072;-70
2024/02/11 03:20:54;;;;;;;23.15;11.57;;;7.50;99.90;;;;;;5004243;28;20504;-70
2024/02/11 03:23:19;;;;;;;25.10;11.75;;;7.50;99.90;;;;;;5006854;28;20061;-70
2024/02/11 03:25:45;;;;;;;29.73;12.48;;;7.50;99.90;;;;;;5005109;28;20061;-70
2024/02/11 03:28:13;;;;;;;24.27;11.95;;;7.50;99.90;;;;;;5006982;28;20493;-70
2024/02/11 03:30:38;;;;;;;29.10;12.20;;;7.50;99.90;;;;;;5024125;28;20072;-70
2024/02/11 03:33:04;;;;;;;30.92;13.73;;;7.40;99.90;;;;;;5007045;28;20496;-70
2024/02/11 03:35:30;;;;;;;29.05;13.35;;;7.50;99.90;;;;;;5022437;28;20385;-70
2024/02/11 03:37:56;;;;;;;35.25;13.93;;;7.40;99.90;;;;;;5007049;28;20049;-69
2024/02/11 03:40:23;;;;;;;32.92;15.13;;;7.40;99.90;;;;;;5006467;28;20546;-70
2024/02/11 03:42:50;;;;;;;29.88;13.23;;;7.50;99.90;;;;;;5006453;28;20084;-70
2024/02/11 03:45:18;;;;;;;30.27;13.80;;;7.40;99.90;;;;;;5007233;28;20057;-70
2024/02/11 03:47:45;;;;;;;34.00;14.30;;;7.40;99.90;;;;;;5022785;28;20057;-70
2024/02/11 03:50:13;;;;;;;32.97;14.68;;;7.50;99.90;;;;;;4990237;28;20575;-70
2024/02/11 03:52:39;;;;;;;36.08;13.40;;;7.40;99.90;;;;;;4989222;28;20641;-71
2024/02/11 03:55:07;;;;;;;30.98;13.90;;;7.40;99.90;;;;;;4990548;28;20499;-70
2024/02/11 03:57:33;;;;;;;35.38;13.20;;;7.30;99.90;;;;;;5006255;28;20056;-69
2024/02/11 03:59:59;;;;;;;40.92;12.98;;;7.30;99.90;;;;;;5003280;28;20048;-70
2024/02/11 04:02:25;;;;;;;31.80;14.32;;;7.40;99.90;;;;;;4995130;28;20053;-70
2024/02/11 04:04:51;;;;;;;32.85;13.23;;;7.40;99.90;;;;;;5005462;28;20049;-70
2024/02/11 04:07:20;;;;;;;28.88;12.27;;;7.40;99.90;;;;;;5005191;28;20413;-70
2024/02/11 04:09:47;;;;;;;30.65;14.02;;;7.40;99.90;;;;;;5023723;28;20053;-70
2024/02/11 04:12:13;;;;;;;27.85;14.48;;;7.40;99.90;;;;;;5006276;28;20096;-70
2024/02/11 04:14:41;;;;;;;32.50;14.10;;;7.30;99.90;;;;;;5004661;28;20046;-69
2024/02/11 04:17:13;;;;;;;31.45;15.20;;;7.30;99.90;;;;;;4989602;28;20166;-70
2024/02/11 04:19:44;;;;;;;28.60;13.43;;;7.40;99.90;;;;;;5006658;28;20499;-70
2024/02/11 04:22:14;;;;;;;27.75;12.98;;;7.30;99.90;;;;;;5001577;28;20093;-70
2024/02/11 04:24:46;;;;;;;45.58;15.95;;;7.20;99.90;;;;;;5002919;28;20547;-71
2024/02/11 04:27:16;;;;;;;28.30;14.13;;;7.30;99.90;;;;;;5001464;28;20061;-70
2024/02/11 04:29:45;;;;;;;35.58;15.13;;;7.30;99.90;;;;;;4998967;28;20056;-71
2024/02/11 04:32:11;;;;;;;31.92;14.60;;;7.30;99.90;;;;;;5000232;28;20436;-71
2024/02/11 04:34:42;;;;;;;34.47;14.98;;;7.30;99.90;;;;;;4983911;28;20077;-70
2024/02/11 04:37:08;;;;;;;29.67;14.75;;;7.30;99.90;;;;;;4997939;28;20124;-70
2024/02/11 04:39:34;;;;;;;31.55;13.48;;;7.30;99.90;;;;;;4988535;28;20520;-71
2024/02/11 04:41:59;;;;;;;38.25;14.93;;;7.30;99.90;;;;;;4986469;28;20095;-70
2024/02/11 04:44:31;;;;;;;33.45;15.55;;;7.30;99.90;;;;;;5001648;28;20076;-70
2024/02/11 04:46:58;;;;;;;32.13;14.45;;;7.30;99.90;;;;;;5002533;28;20060;-71
2024/02/11 04:49:23;;;;;;;31.40;14.02;;;7.30;99.90;;;;;;5001936;28;20093;-71
2024/02/11 04:51:49;;;;;;;29.33;12.95;;;7.30;99.90;;;;;;5002302;28;20497;-71
2024/02/11 04:54:15;;;;;;;34.35;14.60;;;7.20;99.90;;;;;;5002438;28;20053;-70
2024/02/11 04:56:43;;;;;;;33.53;14.45;;;7.20;99.90;;;;;;4983878;28;20489;-71
2024/02/11 04:59:12;;;;;;;36.78;14.63;;;7.20;99.90;;;;;;4990629;28;20050;-71
2024/02/11 05:01:37;;;;;;;41.38;16.38;;;7.20;99.90;;;;;;5001909;28;20335;-71
2024/02/11 05:04:03;;;;;;;55.58;17.42;;;7.20;99.90;;;;;;4985530;28;20500;-71
2024/02/11 05:06:30;;;;;;;43.65;16.95;;;7.20;99.90;;;;;;5001468;28;20049;-71
2024/02/11 05:08:58;;;;;;;53.80;16.92;;;7.20;99.90;;;;;;5001908;28;20057;-71
2024/02/11 05:11:23;;;;;;;38.65;14.30;;;7.20;99.90;;;;;;5002019;28;20468;-71
2024/02/11 05:13:49;;;;;;;48.08;16.60;;;7.20;99.90;;;;;;5001670;28;20052;-71
2024/02/11 05:16:15;;;;;;;44.95;15.70;;;7.20;99.90;;;;;;5006522;28;20056;-70
2024/02/11 05:18:44;;;;;;;36.05;12.95;;;7.10;99.90;;;;;;4988775;28;20053;-71
2024/02/11 05:21:10;;;;;;;37.83;15.10;;;7.10;99.90;;;;;;4990236;28;20101;-71
2024/02/11 05:23:40;;;;;;;37.53;14.02;;;7.10;99.90;;;;;;5004624;28;20564;-71
2024/02/11 05:26:09;;;;;;;37.05;14.45;;;7.10;99.90;;;;;;5005745;28;20065;-71
2024/02/11 05:28:35;;;;;;;36.42;14.88;;;7.20;99.90;;;;;;4999599;28;20405;-70
2024/02/11 05:31:02;;;;;;;40.40;14.25;;;7.20;99.90;;;;;;5005613;28;20041;-71
2024/02/11 05:33:28;;;;;;;37.05;13.63;;;7.20;99.90;;;;;;4990119;28;20099;-71
2024/02/11 05:35:55;;;;;;;43.58;14.45;;;7.20;99.90;;;;;;5005130;28;20045;-70
2024/02/11 05:38:24;;;;;;;38.20;12.80;;;7.10;99.90;;;;;;4987578;28;20121;-70
2024/02/11 05:40:50;;;;;;;34.70;13.57;;;7.10;99.90;;;;;;4985450;28;20092;-71
2024/02/11 05:43:16;;;;;;;42.83;13.80;;;7.10;99.90;;;;;;5005689;28;20064;-71
2024/02/11 05:45:46;;;;;;;31.15;13.90;;;7.20;99.90;;;;;;4989252;28;20480;-70
2024/02/11 05:48:12;;;;;;;37.75;14.50;;;7.10;99.90;;;;;;5004885;28;20049;-71
2024/02/11 05:50:39;;;;;;;43.40;13.68;;;7.10;99.90;;;;;;5005332;28;20128;-71
2024/02/11 05:53:06;;;;;;;45.15;13.73;;;7.10;99.90;;;;;;4988371;28;20049;-71
2024/02/11 05:55:32;;;;;;;33.35;12.88;;;7.20;99.90;;;;;;5003764;28;20503;-71
2024/02/11 05:57:58;;;;;;;30.67;12.45;;;7.10;99.90;;;;;;5004695;28;20053;-71
2024/02/11 06:00:29;;;;;;;34.42;12.80;;;7.20;99.90;;;;;;5004809;28;20513;-71
2024/02/11 06:02:56;;;;;;;38.30;12.90;;;7.10;99.90;;;;;;4989156;28;20089;-70
2024/02/11 06:05:23;;;;;;;38.75;14.25;;;7.10;99.90;;;;;;5005081;28;20388;-70
2024/02/11 06:07:54;;;;;;;37.70;12.70;;;7.20;99.90;;;;;;4989585;28;20107;-71
2024/02/11 06:10:27;;;;;;;43.88;14.00;;;7.20;99.90;;;;;;5003345;28;20057;-71
2024/02/11 06:12:53;;;;;;;51.60;14.82;;;7.20;99.90;;;;;;5005871;28;20092;-70
2024/02/11 06:15:20;;;;;;;42.95;13.82;;;7.10;99.90;;;;;;4987680;28;20049;-71
2024/02/11 06:17:51;;;;;;;47.25;14.30;;;7.20;99.90;;;;;;5005426;28;20058;-71
2024/02/11 06:20:18;;;;;;;31.77;12.95;;;7.10;99.90;;;;;;4988428;28;20407;-71
2024/02/11 06:22:46;;;;;;;34.00;12.75;;;7.20;99.90;;;;;;5004446;28;20119;-71
2024/02/11 06:25:13;;;;;;;41.42;13.30;;;7.10;99.90;;;;;;4986636;28;20056;-71
2024/02/11 06:27:40;;;;;;;43.25;12.88;;;7.20;99.90;;;;;;5003171;28;20041;-71
2024/02/11 06:30:13;;;;;;;44.35;15.25;;;7.20;99.90;;;;;;5003430;28;20057;-70
2024/02/11 06:32:46;;;;;;;49.03;14.32;;;7.10;99.90;;;;;;5003883;28;20429;-71
2024/02/11 06:35:13;;;;;;;46.17;13.43;;;7.10;99.90;;;;;;4990765;28;20050;-71
2024/02/11 06:37:41;;;;;;;35.15;13.27;;;7.20;99.90;;;;;;5003057;28;20069;-70
2024/02/11 06:40:14;;;;;;;39.22;12.13;;;7.20;99.90;;;;;;5003396;28;20412;-71
2024/02/11 06:42:44;;;;;;;39.08;13.48;;;7.20;99.90;;;;;;4986320;28;20054;-71
2024/02/11 06:45:12;;;;;;;33.95;13.00;;;7.10;99.90;;;;;;5003110;28;20492;-71
2024/02/11 06:47:38;;;;;;;45.28;13.60;;;7.20;99.90;;;;;;5002784;28;20058;-71
2024/02/11 06:50:07;;;;;;;63.25;15.07;;;7.10;99.90;;;;;;4986527;28;20054;-71
2024/02/11 06:52:32;;;;;;;47.35;14.07;;;7.10;99.90;;;;;;4986949;28;20073;-71
2024/02/11 06:55:00;;;;;;;39.05;12.95;;;7.20;99.90;;;;;;5002776;28;20488;-70
2024/02/11 06:57:26;;;;;;;44.58;12.07;;;7.20;99.90;;;;;;5003312;28;20462;-71
2024/02/11 06:59:52;;;;;;;43.13;14.18;;;7.20;99.90;;;;;;5002690;28;20085;-70
2024/02/11 07:02:18;;;;;;;38.78;13.02;;;7.10;99.90;;;;;;5002237;28;20119;-71
2024/02/11 07:04:44;;;;;;;39.25;13.52;;;7.20;99.90;;;;;;5002747;28;20492;-71
2024/02/11 07:07:10;;;;;;;39.75;13.13;;;7.20;99.90;;;;;;4970376;28;20128;-71
2024/02/11 07:09:36;;;;;;;50.17;13.70;;;7.20;99.90;;;;;;5002624;28;20483;-71
2024/02/11 07:12:03;;;;;;;39.97;12.18;;;7.10;99.90;;;;;;5002322;28;20045;-71
2024/02/11 07:14:29;;;;;;;49.08;14.18;;;7.10;99.90;;;;;;4985645;28;20862;-71
2024/02/11 07:16:54;;;;;;;45.55;14.23;;;7.20;99.90;;;;;;4986641;28;20049;-71
2024/02/11 07:19:24;;;;;;;69.90;16.02;;;7.10;99.90;;;;;;5002024;28;20112;-71
2024/02/11 07:21:52;;;;;;;40.13;13.02;;;7.10;99.90;;;;;;5002159;28;20069;-71
2024/02/11 07:24:18;;;;;;;36.17;12.57;;;7.10;99.90;;;;;;5001460;28;20089;-71
2024/02/11 07:26:47;;;;;;;31.35;11.57;;;7.10;99.90;;;;;;5002391;28;20088;-71
2024/02/11 07:29:14;;;;;;;59.45;13.48;;;7.10;99.90;;;;;;5002653;28;20397;-71
2024/02/11 07:31:41;;;;;;;46.45;14.10;;;7.10;99.90;;;;;;5002338;28;20540;-71
2024/02/11 07:34:07;;;;;;;69.03;14.57;;;7.10;99.90;;;;;;5001219;28;20171;-71
2024/02/11 07:36:33;;;;;;;65.70;14.85;;;7.10;99.90;;;;;;4984764;28;20042;-71
2024/02/11 07:38:58;;;;;;;44.78;13.35;;;7.10;99.90;;;;;;5002274;28;20085;-71
2024/02/11 07:41:24;;;;;;;45.08;14.27;;;7.10;99.90;;;;;;4969319;28;20460;-72
2024/02/11 07:43:50;;;;;;;39.38;13.27;;;7.10;99.90;;;;;;5002183;28;20441;-71
2024/02/11 07:46:16;;;;;;;40.42;12.93;;;7.00;99.90;;;;;;5000946;28;20058;-72
2024/02/11 07:48:42;;;;;;;59.55;14.25;;;7.10;99.90;;;;;;5001990;28;20050;-71
2024/02/11 07:51:08;;;;;;;64.57;14.43;;;7.00;99.90;;;;;;4985656;28;20049;-71
2024/02/11 07:53:35;;;;;;;47.55;12.60;;;7.10;99.90;;;;;;4985289;28;20045;-71
2024/02/11 07:56:01;;;;;;;46.50;13.52;;;7.10;99.90;;;;;;5001234;28;20048;-71
2024/02/11 07:58:27;;;;;;;50.05;13.90;;;7.00;99.90;;;;;;5001239;28;20492;-72
2024/02/11 08:00:52;;;;;;;49.33;13.48;;;7.10;99.90;;;;;;5002136;28;20061;-72
2024/02/11 08:03:21;;;;;;;42.63;12.15;;;7.00;99.90;;;;;;5001762;28;20510;-72
2024/02/11 08:05:47;;;;;;;29.42;11.93;;;7.10;99.90;;;;;;4984571;28;20073;-72
2024/02/11 08:08:13;;;;;;;45.95;12.30;;;7.00;99.90;;;;;;4984777;28;20135;-72
2024/02/11 08:10:38;;;;;;;38.67;12.55;;;7.00;99.90;;;;;;4980768;28;20057;-72
2024/02/11 08:13:07;;;;;;;56.42;14.10;;;7.00;99.90;;;;;;5000096;28;20045;-72
2024/02/11 08:15:35;;;;;;;30.88;11.93;;;7.00;99.90;;;;;;4963265;28;20648;-71
2024/02/11 08:18:04;;;;;;;55.40;14.02;;;7.00;99.90;;;;;;4987542;28;20687;-71
2024/02/11 08:20:31;;;;;;;42.45;12.88;;;7.10;99.90;;;;;;4982812;28;20085;-71
2024/02/11 08:23:04;;;;;;;39.67;12.15;;;7.10;99.90;;;;;;4992134;28;20067;-72
2024/02/11 08:25:31;;;;;;;41.35;12.40;;;7.00;99.90;;;;;;5011512;28;20500;-72
2024/02/11 08:27:57;;;;;;;50.42;12.75;;;7.00;99.90;;;;;;5008079;28;20064;-72
2024/02/11 08:30:24;;;;;;;47.03;12.93;;;7.00;99.90;;;;;;5014311;28;20499;-71
2024/02/11 08:32:50;;;;;;;30.33;12.30;;;7.10;99.90;;;;;;5011967;28;20085;-71
2024/02/11 08:35:18;;;;;;;32.45;11.55;;;7.10;99.90;;;;;;4998577;28;20100;-72
2024/02/11 08:37:44;;;;;;;43.28;13.40;;;7.00;99.90;;;;;;4994180;28;20145;-71
2024/02/11 08:40:12;;;;;;;37.35;12.60;;;7.10;99.90;;;;;;4972948;28;20095;-71
2024/02/11 08:42:38;;;;;;;37.47;11.80;;;7.10;99.90;;;;;;4993220;28;20064;-71
2024/02/11 08:45:04;;;;;;;42.38;13.13;;;7.20;99.90;;;;;;5002358;28;20145;-71
2024/02/11 08:47:30;;;;;;;52.63;13.35;;;7.10;99.90;;;;;;5001150;28;20104;-71
2024/02/11 08:49:56;;;;;;;46.25;12.85;;;7.10;99.90;;;;;;5001543;28;20049;-71
2024/02/11 08:52:21;;;;;;;56.03;13.82;;;7.10;99.90;;;;;;4987927;28;20138;-71
2024/02/11 08:54:47;;;;;;;38.58;12.30;;;7.10;99.90;;;;;;4951981;28;20142;-71
2024/02/11 08:57:17;;;;;;;37.47;12.45;;;7.20;99.90;;;;;;4977629;28;20091;-71
2024/02/11 08:59:46;;;;;;;;;;;7.20;99.90;;;;;;5013639;28;20042;-71
2024/02/11 09:02:12;;;;;;;41.95;11.95;;;7.20;99.90;;;;;;4995596;28;19925;-71
2024/02/11 09:04:38;;;;;;;22.70;9.40;;;7.20;99.90;;;;;;4997002;28;20051;-71
2024/02/11 09:07:09;;;;;;;26.98;10.68;;;7.20;99.90;;;;;;5014148;28;20591;-71
2024/02/11 09:09:35;;;;;;;34.83;11.68;;;7.20;99.90;;;;;;5012929;28;20046;-71
2024/02/11 09:12:01;;;;;;;30.35;12.60;;;7.30;99.90;;;;;;4999569;28;20045;-72
2024/02/11 09:14:29;;;;;;;29.40;11.43;;;7.20;99.90;;;;;;5004140;28;20724;-71
2024/02/11 09:17:02;;;;;;;34.17;13.20;;;7.20;99.90;;;;;;5003502;28;20050;-71
2024/02/11 09:19:31;;;;;;;26.77;11.07;;;7.20;99.90;;;;;;5005254;28;20137;-71
2024/02/11 09:22:05;;;;;;;31.05;11.25;;;7.20;99.90;;;;;;5006339;28;20257;-71
2024/02/11 09:24:34;;;;;;;29.38;10.48;;;7.20;99.90;;;;;;5003664;28;20057;-71
2024/02/11 09:27:00;;;;;;;31.20;11.52;;;7.30;99.90;;;;;;5007958;28;20064;-71
2024/02/11 09:29:26;;;;;;;39.85;12.63;;;7.30;99.90;;;;;;5007126;28;20049;-71
2024/02/11 09:31:55;;;;;;;25.60;11.13;;;7.30;99.90;;;;;;5021485;28;20045;-72
2024/02/11 09:34:22;;;;;;;27.40;11.68;;;7.20;99.90;;;;;;5021175;28;20060;-71
2024/02/11 09:36:48;;;;;;;31.70;11.38;;;7.30;99.90;;;;;;5008296;28;20608;-71
2024/02/11 09:39:14;;;;;;;34.95;12.13;;;7.20;99.90;;;;;;4991161;28;20076;-71
2024/02/11 09:41:40;;;;;;;23.40;10.43;;;7.20;99.90;;;;;;5006832;28;20590;-71
2024/02/11 09:44:09;;;;;;;29.52;12.02;;;7.30;99.90;;;;;;5007248;28;20614;-71
2024/02/11 09:46:39;;;;;;;30.88;12.05;;;7.30;99.90;;;;;;4991016;28;20056;-71
2024/02/11 09:49:10;;;;;;;22.38;10.27;;;7.30;99.90;;;;;;5008862;28;20102;-71
2024/02/11 09:51:36;;;;;;;35.28;13.13;;;7.30;99.90;;;;;;5003551;28;20132;-71
2024/02/11 09:54:04;;;;;;;37.15;12.20;;;7.30;99.90;;;;;;5009528;28;20718;-71
2024/02/11 09:56:30;;;;;;;30.40;12.43;;;7.30;99.90;;;;;;5004483;28;20050;-71
2024/02/11 09:58:57;;;;;;;29.00;11.30;;;7.30;99.90;;;;;;5005149;28;20049;-71
2024/02/11 10:01:23;;;;;;;26.17;11.18;;;7.30;99.90;;;;;;4997440;28;20586;-71
2024/02/11 10:03:54;;;;;;;45.10;13.23;;;7.30;99.90;;;;;;5012108;28;20049;-71
2024/02/11 10:06:28;;;;;;;44.22;12.00;;;7.30;99.90;;;;;;4990906;28;20049;-71
2024/02/11 10:08:54;;;;;;;35.90;13.30;;;7.40;99.90;;;;;;5005409;28;20618;-71
2024/02/11 10:11:20;;;;;;;45.00;12.45;;;7.40;99.90;;;;;;5007627;28;20046;-71
2024/02/11 10:13:46;;;;;;;28.23;10.85;;;7.40;99.90;;;;;;4989741;28;20130;-71
2024/02/11 10:16:12;;;;;;;46.75;12.88;;;7.40;99.90;;;;;;5023292;28;20590;-73
2024/02/11 10:18:39;;;;;;;38.58;13.13;;;7.50;99.90;;;;;;5023433;28;20041;-71
2024/02/11 10:21:08;;;;;;;53.85;13.65;;;7.50;99.90;;;;;;5006121;28;20156;-71
2024/02/11 10:23:40;;;;;;;56.08;13.65;;;7.40;99.90;;;;;;5006747;28;20062;-72
2024/02/11 10:26:11;;;;;;;49.05;13.90;;;7.50;99.90;;;;;;5003123;28;20060;-71
2024/02/11 10:28:38;;;;;;;34.95;12.30;;;7.50;99.90;;;;;;4973236;28;20136;-71
2024/02/11 10:31:05;;;;;;;29.98;10.13;;;7.50;99.90;;;;;;5016967;28;20041;-71
2024/02/11 10:33:32;;;;;;;45.80;13.07;;;7.50;99.90;;;;;;5007212;28;20053;-71
2024/02/11 10:36:01;;;;;;;48.55;13.70;;;7.50;99.90;;;;;;5023339;28;20045;-71
2024/02/11 10:38:27;;;;;;;50.05;13.32;;;7.50;99.90;;;;;;5006118;28;20048;-71
2024/02/11 10:40:54;;;;;;;48.13;13.07;;;7.50;99.90;;;;;;5006561;28;20111;-71
2024/02/11 10:43:24;;;;;;;39.17;12.02;;;7.60;99.90;;;;;;4989636;28;20053;-71
2024/02/11 10:45:51;;;;;;;63.30;13.82;;;7.60;99.90;;;;;;5006679;28;20080;-71
2024/02/11 10:48:19;;;;;;;58.50;13.95;;;7.60;99.90;;;;;;5005139;28;20084;-71
2024/02/11 10:51:00;;;;;;;47.72;12.90;;;7.60;99.90;;;;;;5006463;28;20038;-71
2024/02/11 10:53:32;;;;;;;32.38;11.02;;;7.70;99.90;;;;;;5005915;28;20053;-72
2024/02/11 10:55:59;;;;;;;46.25;12.80;;;7.70;99.90;;;;;;4974238;28;20101;-72
2024/02/11 10:58:31;;;;;;;38.22;12.60;;;7.70;99.90;;;;;;5003400;28;20044;-72
2024/02/11 11:00:59;;;;;;;47.35;12.48;;;7.80;99.90;;;;;;5013878;28;20599;-72
2024/02/11 11:03:28;;;;;;;45.22;13.70;;;7.80;99.90;;;;;;5016425;28;20055;-72
2024/02/11 11:05:57;;;;;;;52.38;13.93;;;7.80;99.90;;;;;;4993175;28;20046;-71
2024/02/11 11:08:24;;;;;;;47.42;13.00;;;7.80;99.90;;;;;;5019646;28;20064;-71
2024/02/11 11:10:53;;;;;;;47.35;13.07;;;7.90;99.90;;;;;;5010303;28;20416;-71
2024/02/11 11:13:24;;;;;;;49.53;13.77;;;7.80;99.90;;;;;;5003968;28;20042;-71
2024/02/11 11:15:51;;;;;;;48.17;13.48;;;7.90;99.90;;;;;;5022585;28;20060;-71
2024/02/11 11:18:26;;;;;;;49.17;12.57;;;7.90;99.90;;;;;;4992367;28;20067;-71
2024/02/11 11:20:53;;;;;;;54.80;13.52;;;7.90;99.90;;;;;;5007579;28;20061;-71
2024/02/11 11:23:19;;;;;;;45.15;13.70;;;7.90;99.90;;;;;;4993799;28;20137;-71
2024/02/11 11:25:45;;;;;;;51.60;14.20;;;8.00;99.90;;;;;;4962800;28;20097;-71
2024/02/11 11:28:13;;;;;;;48.35;13.88;;;8.00;99.90;;;;;;4977465;28;20054;-72
2024/02/11 11:30:39;;;;;;;44.00;13.45;;;8.00;99.90;;;;;;4982418;28;20196;-72
2024/02/11 11:33:05;;;;;;;62.15;14.63;;;8.00;99.90;;;;;;4981909;28;20137;-72
2024/02/11 11:35:32;;;;;;;48.42;13.30;;;8.00;99.90;;;;;;4966237;28;20057;-72
2024/02/11 11:38:02;;;;;;;41.42;13.98;;;8.10;99.90;;;;;;4978460;28;20050;-72
2024/02/11 11:40:28;;;;;;;;;;;8.10;99.90;;;;;;4982611;28;20078;-72
2024/02/11 11:42:54;;;;;;;43.50;13.73;;;8.10;99.90;;;;;;4962089;28;19926;-72
2024/02/11 11:45:21;;;;;;;51.25;14.38;;;8.10;99.90;;;;;;4960659;28;20050;-72
2024/02/11 11:47:51;;;;;;;41.35;12.02;;;8.10;99.90;;;;;;4966935;28;20042;-72
2024/02/11 11:50:19;;;;;;;44.35;14.43;;;8.20;99.90;;;;;;4981536;28;20058;-72
2024/02/11 11:52:48;;;;;;;38.45;13.32;;;8.20;99.90;;;;;;4982426;28;20193;-72
2024/02/11 11:55:14;;;;;;;44.65;13.20;;;8.20;99.90;;;;;;4946908;28;20038;-72
2024/02/11 11:57:40;;;;;;;57.50;14.70;;;8.20;99.90;;;;;;4941192;28;20116;-72
2024/02/11 12:00:10;;;;;;;59.95;15.07;;;8.30;99.90;;;;;;4966262;28;20059;-72
2024/02/11 12:02:36;;;;;;;46.75;13.65;;;8.30;99.90;;;;;;4963727;28;20089;-72
2024/02/11 12:05:03;;;;;;;65.68;16.08;;;8.30;99.90;;;;;;4964160;28;20062;-72
2024/02/11 12:07:32;;;;;;;60.55;14.57;;;8.30;99.90;;;;;;4971659;28;20273;-72
2024/02/11 12:09:59;;;;;;;50.15;14.00;;;8.40;99.90;;;;;;4962600;28;20861;-72
2024/02/11 12:12:25;;;;;;;46.22;12.68;;;8.30;99.90;;;;;;4981613;28;20523;-72
2024/02/11 12:14:51;;;;;;;47.05;13.27;;;8.30;99.90;;;;;;4980274;28;20114;-73
2024/02/11 12:17:17;;;;;;;49.63;13.93;;;8.40;99.90;;;;;;4980452;28;20089;-72
2024/02/11 12:19:43;;;;;;;51.70;12.88;;;8.40;99.90;;;;;;4981200;28;20544;-73
2024/02/11 12:22:09;;;;;;;44.95;13.45;;;8.50;99.90;;;;;;4980180;28;20528;-73
2024/02/11 12:24:41;;;;;;;42.95;13.00;;;8.40;99.90;;;;;;5004576;28;20049;-73
2024/02/11 12:27:11;;;;;;;50.53;14.10;;;8.50;99.90;;;;;;5003614;28;20053;-74
2024/02/11 12:29:37;;;;;;;62.05;13.80;;;8.50;99.90;;;;;;5005539;28;20129;-74
2024/02/11 12:32:03;;;;;;;44.60;13.25;;;8.50;99.90;;;;;;5010700;28;20047;-74
2024/02/11 12:34:29;;;;;;;45.83;13.90;;;8.50;99.90;;;;;;5005882;28;20510;-74
2024/02/11 12:37:11;;;;;;;40.47;12.38;;;8.60;99.90;;;;;;5012730;28;20049;-74
2024/02/11 12:39:38;;;;;;;47.55;14.10;;;8.50;99.90;;;;;;4979491;28;20052;-74